Curuca, Brazil
Current Conditions -  °F | °C
As of 3:00 PM on Saturday 25 Oct 2014 (Local Time) from SBUY Reporting Station
Broken Clouds Broken Clouds  
Wind Chill: 79°   Ceiling: 9000
Heat Index: 82°   Visibility: 6mi
Dew Point: 73°   Wind: 0mph
Humidity: 83%   Direction: NA
Pressure: 29.77"   Gusts: NA
Location:  6.1°S, 64.28°W
Report Text: SBUY 251900Z 00000KT 9999 SCT008 BKN090 26/23 Q1008
Loading
Personal Weather Stations






























Interactive Weather Map
Tropical Storm Tracking
New forecast layout! Learn more

10-Day Weather Forecast

Advertisements
Track Severe Weather on mobile